createdAt,value
2019-01-08T00:03:11.802Z,3.60
2019-01-08T00:09:00.682Z,3.00
2019-01-08T00:11:29.211Z,3.33
2019-01-08T00:14:11.141Z,3.60
2019-01-08T00:16:52.205Z,3.83
2019-01-08T00:19:25.375Z,4.50
2019-01-08T00:21:56.867Z,5.33
2019-01-08T00:24:28.477Z,3.77
2019-01-08T00:27:00.277Z,4.03
2019-01-08T00:29:30.302Z,4.30
2019-01-08T00:35:34.411Z,4.73
2019-01-08T00:38:10.280Z,4.40
2019-01-08T00:40:56.018Z,4.17
2019-01-08T00:43:31.663Z,4.83
2019-01-08T00:49:11.025Z,4.40
2019-01-08T00:51:41.373Z,4.50
2019-01-08T00:56:52.866Z,4.50
2019-01-08T00:59:33.053Z,5.23
2019-01-08T01:02:15.273Z,5.00
2019-01-08T01:04:45.720Z,4.53
2019-01-08T01:07:15.716Z,4.97
2019-01-08T01:09:49.178Z,5.20
2019-01-08T01:12:23.180Z,4.53
2019-01-08T01:14:53.861Z,4.87
2019-01-08T01:17:24.897Z,5.40
2019-01-08T01:19:55.877Z,4.53
2019-01-08T01:22:25.741Z,4.60
2019-01-08T01:24:55.621Z,4.57
2019-01-08T01:27:27.205Z,4.03
2019-01-08T01:29:57.972Z,4.13
2019-01-08T01:32:27.909Z,4.20
2019-01-08T01:34:57.921Z,4.13
2019-01-08T01:37:30.501Z,4.43
2019-01-08T01:40:00.490Z,4.30
2019-01-08T01:42:34.982Z,4.83
2019-01-08T01:45:05.308Z,4.43
2019-01-08T01:47:39.018Z,3.80
2019-01-08T01:50:13.128Z,3.87
2019-01-08T01:52:46.093Z,5.33
2019-01-08T01:55:19.961Z,4.70
2019-01-08T01:57:53.021Z,4.77
2019-01-08T02:00:27.006Z,5.27
2019-01-08T02:02:59.439Z,5.03
2019-01-08T02:05:31.644Z,4.53
2019-01-08T02:08:06.023Z,5.10
2019-01-08T02:10:41.715Z,4.80
2019-01-08T02:13:16.113Z,4.50
2019-01-08T02:15:48.079Z,4.50
2019-01-08T02:18:20.760Z,5.27
2019-01-08T02:20:53.748Z,4.43
2019-01-08T02:23:26.261Z,4.10
2019-01-08T02:25:59.982Z,4.93
2019-01-08T02:28:34.330Z,5.00
2019-01-08T02:31:07.144Z,4.87
2019-01-08T02:33:42.282Z,4.43
2019-01-08T02:36:18.394Z,4.77
2019-01-08T02:38:49.712Z,4.83
2019-01-08T02:41:21.401Z,4.33
2019-01-08T02:43:53.021Z,4.93
2019-01-08T02:46:24.630Z,4.40
2019-01-08T02:48:57.180Z,3.97
2019-01-08T02:51:31.543Z,5.20
2019-01-08T02:54:07.634Z,3.70
2019-01-08T02:56:37.520Z,3.97
2019-01-08T02:59:07.933Z,4.73
2019-01-08T03:01:37.953Z,4.57
2019-01-08T03:04:11.233Z,4.20
2019-01-08T03:06:43.252Z,4.33
2019-01-08T03:09:15.175Z,4.83
2019-01-08T03:11:47.364Z,4.37
2019-01-08T03:14:19.089Z,4.60
2019-01-08T03:16:52.029Z,4.47
2019-01-08T03:19:22.014Z,3.83
2019-01-08T03:21:54.372Z,4.10
2019-01-08T03:24:25.459Z,4.70
2019-01-08T03:26:55.538Z,4.50
2019-01-08T03:29:33.547Z,4.00
2019-01-08T03:32:00.055Z,4.43
2019-01-08T03:34:32.034Z,4.50
2019-01-08T03:37:02.810Z,5.23
2019-01-08T03:39:36.445Z,4.37
2019-01-08T03:42:08.375Z,4.30
2019-01-08T03:44:38.432Z,4.67
2019-01-08T03:47:10.827Z,4.53
2019-01-08T03:49:42.153Z,4.00
2019-01-08T03:52:12.941Z,3.50
2019-01-08T03:54:43.117Z,4.40
2019-01-08T03:57:17.133Z,4.53
2019-01-08T03:59:52.182Z,4.03
2019-01-08T04:02:21.929Z,3.93
2019-01-08T04:04:53.446Z,4.57
2019-01-08T04:07:23.523Z,4.40
2019-01-08T04:09:55.496Z,4.23
2019-01-08T04:12:25.411Z,4.07
2019-01-08T04:14:55.295Z,3.97
2019-01-08T04:17:25.338Z,4.27
2019-01-08T04:19:58.257Z,4.30
2019-01-08T04:22:29.806Z,4.97
2019-01-08T04:24:59.629Z,4.73
2019-01-08T04:27:29.548Z,4.70
2019-01-08T04:29:59.417Z,4.47
2019-01-08T04:32:31.166Z,3.57
2019-01-08T04:35:01.147Z,3.57
2019-01-08T04:37:30.987Z,4.20
2019-01-08T04:40:01.324Z,4.17
2019-01-08T04:42:31.755Z,4.10
2019-01-08T04:45:01.681Z,3.60
2019-01-08T04:47:34.984Z,3.77
2019-01-08T04:50:07.340Z,3.80
2019-01-08T04:52:39.301Z,4.43
2019-01-08T04:55:09.452Z,3.97
2019-01-08T04:57:39.607Z,3.30
2019-01-08T05:00:10.623Z,4.93
2019-01-08T05:02:42.254Z,4.17
2019-01-08T05:05:15.947Z,3.80
2019-01-08T05:07:45.950Z,4.40
2019-01-08T05:10:17.703Z,4.67
2019-01-08T05:12:48.117Z,3.40
2019-01-08T05:15:19.718Z,3.63
2019-01-08T05:17:49.784Z,3.53
2019-01-08T05:20:19.812Z,4.43
2019-01-08T05:22:49.721Z,3.80
2019-01-08T05:25:19.778Z,3.83
2019-01-08T05:27:49.934Z,3.87
2019-01-08T05:30:20.086Z,3.33
2019-01-08T05:32:50.296Z,3.40
2019-01-08T05:35:20.164Z,3.47
2019-01-08T05:37:50.005Z,3.63
2019-01-08T05:40:20.099Z,3.13
2019-01-08T05:42:50.265Z,3.47
2019-01-08T05:45:20.253Z,3.10
2019-01-08T05:47:52.873Z,2.63
2019-01-08T05:50:23.110Z,3.03
2019-01-08T05:52:53.063Z,3.30
2019-01-08T05:55:23.492Z,3.70
2019-01-08T05:57:54.983Z,3.40
2019-01-08T06:00:25.970Z,3.30
2019-01-08T06:02:56.120Z,3.80
2019-01-08T06:05:27.901Z,2.90
2019-01-08T06:07:57.801Z,4.20
2019-01-08T06:10:27.927Z,3.73
2019-01-08T06:12:58.303Z,2.70
2019-01-08T06:15:28.574Z,2.63
2019-01-08T06:17:58.510Z,3.80
2019-01-08T06:20:28.678Z,2.93
2019-01-08T06:22:58.971Z,3.07
2019-01-08T06:25:29.028Z,3.50
2019-01-08T06:28:00.599Z,3.20
2019-01-08T06:30:30.363Z,3.67
2019-01-08T06:33:01.510Z,2.83
2019-01-08T06:35:31.542Z,4.00
2019-01-08T06:38:01.534Z,3.37
2019-01-08T06:40:31.486Z,4.10
2019-01-08T06:43:02.011Z,3.63
2019-01-08T06:45:32.052Z,4.50
2019-01-08T06:48:02.328Z,3.67
2019-01-08T06:50:32.175Z,3.40
2019-01-08T06:53:02.180Z,3.43
2019-01-08T06:55:34.953Z,3.80
2019-01-08T06:58:04.993Z,3.90
2019-01-08T07:00:35.045Z,3.80
2019-01-08T07:03:04.986Z,3.00
2019-01-08T07:05:34.891Z,3.50
2019-01-08T07:08:04.795Z,3.70
2019-01-08T07:10:36.889Z,3.53
2019-01-08T07:13:06.934Z,4.07
2019-01-08T07:15:36.952Z,3.63
2019-01-08T07:18:07.050Z,4.33
2019-01-08T07:20:37.003Z,3.87
2019-01-08T07:23:06.896Z,3.43
2019-01-08T07:25:42.062Z,3.70
2019-01-08T07:28:08.373Z,3.93
2019-01-08T07:30:41.654Z,3.80
2019-01-08T07:33:09.840Z,3.97
2019-01-08T07:35:39.899Z,5.07
2019-01-08T07:38:10.499Z,4.70
2019-01-08T07:40:41.485Z,4.17
2019-01-08T07:43:11.416Z,3.83
2019-01-08T07:45:41.492Z,3.80
2019-01-08T07:48:11.386Z,4.43
2019-01-08T07:50:41.528Z,3.93
2019-01-08T07:53:12.466Z,3.73
2019-01-08T07:55:42.513Z,4.20
2019-01-08T07:58:12.290Z,3.77
2019-01-08T08:00:49.780Z,4.13
2019-01-08T08:03:13.627Z,4.23
2019-01-08T08:05:43.564Z,4.70
2019-01-08T08:08:13.871Z,3.90
2019-01-08T08:10:43.660Z,4.33
2019-01-08T08:13:14.853Z,5.97
2019-01-08T08:15:45.010Z,4.27
2019-01-08T08:18:14.943Z,5.43
2019-01-08T08:20:45.111Z,4.70
2019-01-08T08:23:14.871Z,4.87
2019-01-08T08:25:44.784Z,5.00
2019-01-08T08:28:15.094Z,4.63
2019-01-08T08:30:48.447Z,4.27
2019-01-08T08:33:18.365Z,4.13
2019-01-08T08:35:48.317Z,4.67
2019-01-08T08:38:19.405Z,4.73
2019-01-08T08:40:49.398Z,3.80
2019-01-08T08:43:19.424Z,3.23
2019-01-08T08:45:49.558Z,4.17
2019-01-08T08:48:22.492Z,3.90
2019-01-08T08:50:52.454Z,3.83
2019-01-08T08:53:22.270Z,3.50
2019-01-08T08:55:52.089Z,4.10
2019-01-08T08:58:22.469Z,3.57
2019-01-08T09:00:53.782Z,3.40
2019-01-08T09:03:24.985Z,4.57
2019-01-08T09:05:54.877Z,3.47
2019-01-08T09:08:24.650Z,3.90
2019-01-08T09:10:57.585Z,3.83
2019-01-08T09:13:27.461Z,4.37
2019-01-08T09:15:58.575Z,3.40
2019-01-08T09:18:30.534Z,2.97
2019-01-08T09:21:01.078Z,3.10
2019-01-08T09:23:34.014Z,3.70
2019-01-08T09:26:03.914Z,2.97
2019-01-08T09:28:36.821Z,2.90
2019-01-08T09:31:15.357Z,3.33
2019-01-08T09:33:39.991Z,3.33
2019-01-08T09:36:10.055Z,3.27
2019-01-08T09:38:40.183Z,3.00
2019-01-08T09:41:09.910Z,3.97
2019-01-08T09:43:39.776Z,4.07
2019-01-08T09:46:10.005Z,4.00
2019-01-08T09:48:45.843Z,4.20
2019-01-08T10:09:01.976Z,5.50
2019-01-08T10:11:31.899Z,4.87
2019-01-08T10:14:28.332Z,4.73
2019-01-08T10:16:59.856Z,5.00
2019-01-08T10:19:29.695Z,4.70
2019-01-08T10:22:01.463Z,4.40
2019-01-08T10:24:31.534Z,4.73
2019-01-08T10:27:01.537Z,4.13
2019-01-08T10:29:31.944Z,5.50
2019-01-08T10:32:01.929Z,5.00
2019-01-08T10:34:53.546Z,4.07
2019-01-08T10:37:16.862Z,4.70
2019-01-08T10:39:50.831Z,4.63
2019-01-08T10:42:20.672Z,5.20
2019-01-08T10:44:50.653Z,4.17
2019-01-08T10:47:22.051Z,4.60
2019-01-08T10:49:52.213Z,4.37
2019-01-08T10:52:21.998Z,4.60
2019-01-08T10:54:52.009Z,3.77
2019-01-08T10:57:22.115Z,2.93
2019-01-08T10:59:52.310Z,3.27
2019-01-08T11:02:22.379Z,4.33
2019-01-08T11:04:52.275Z,3.33
2019-01-08T11:07:22.350Z,3.70
2019-01-08T11:09:52.168Z,4.23
2019-01-08T11:12:22.106Z,5.17
2019-01-08T11:14:52.034Z,4.27
2019-01-08T11:17:21.879Z,3.93
2019-01-08T11:19:51.613Z,3.87
2019-01-08T11:22:21.416Z,3.60
2019-01-08T11:24:52.352Z,3.97
2019-01-08T11:27:22.179Z,3.13
2019-01-08T11:29:52.069Z,3.63
2019-01-08T11:32:21.822Z,3.50
2019-01-08T11:34:51.903Z,4.33
2019-01-08T11:37:22.073Z,3.60
2019-01-08T11:39:52.153Z,3.97
2019-01-08T11:42:22.013Z,4.43
2019-01-08T11:44:52.521Z,4.27
2019-01-08T11:58:15.098Z,5.63
2019-01-08T12:00:50.255Z,7.10
2019-01-08T12:03:23.160Z,6.80
2019-01-08T12:05:57.424Z,7.10
2019-01-08T12:08:29.765Z,6.63
2019-01-08T12:11:01.097Z,5.67
2019-01-08T12:13:31.502Z,5.33
2019-01-08T12:16:01.420Z,6.30
2019-01-08T12:18:31.262Z,5.67
2019-01-08T12:21:06.047Z,7.00
2019-01-08T12:23:36.171Z,6.77
2019-01-08T14:15:43.702Z,5.43
2019-01-08T14:18:21.323Z,6.53
2019-01-08T14:20:51.869Z,6.00
2019-01-08T14:23:23.337Z,5.50
2019-01-08T14:25:53.805Z,4.90
2019-01-08T14:28:24.216Z,4.57
2019-01-08T14:30:54.442Z,4.77
2019-01-08T14:33:26.487Z,3.73
2019-01-08T14:35:56.799Z,3.10
2019-01-08T14:38:26.802Z,2.63
2019-01-08T14:41:12.223Z,2.60
2019-01-08T14:43:39.175Z,2.90
2019-01-08T14:46:34.803Z,3.67
2019-01-08T14:49:06.039Z,3.37
2019-01-08T14:51:37.878Z,4.17
2019-01-08T14:54:09.435Z,4.23
2019-01-08T14:56:41.006Z,4.90
2019-01-08T14:59:11.122Z,4.50
2019-01-08T15:01:41.991Z,3.90
2019-01-08T15:04:12.148Z,4.70
2019-01-08T15:06:42.664Z,3.73
2019-01-08T15:17:22.880Z,4.20
2019-01-08T15:19:54.113Z,4.60
2019-01-08T15:22:24.229Z,3.87
2019-01-08T15:24:54.250Z,4.50
2019-01-08T15:27:24.454Z,3.73
2019-01-08T15:29:55.040Z,4.37
2019-01-08T15:32:27.421Z,3.93
2019-01-08T15:34:58.027Z,4.20
2019-01-08T15:37:30.609Z,3.97
2019-01-08T15:40:03.059Z,4.10
2019-01-08T15:42:47.598Z,2.80
2019-01-08T15:45:18.579Z,4.33
2019-01-08T15:47:50.094Z,3.90
2019-01-08T15:50:21.582Z,4.10
2019-01-08T15:53:07.494Z,5.63
2019-01-08T15:55:39.152Z,4.30
2019-01-08T15:58:10.750Z,5.20
2019-01-08T16:00:42.075Z,5.40
2019-01-08T16:03:14.114Z,4.60
2019-01-08T16:05:45.121Z,5.50
2019-01-08T16:08:16.908Z,5.50
2019-01-08T16:10:52.110Z,5.70
2019-01-08T16:13:24.925Z,5.80
2019-01-08T16:15:55.452Z,5.50
2019-01-08T16:18:30.149Z,5.30
2019-01-08T16:21:10.549Z,5.50
2019-01-08T16:23:46.202Z,5.43
2019-01-08T16:26:18.260Z,5.10
2019-01-08T16:28:57.181Z,5.27
2019-01-08T16:31:32.822Z,4.73
2019-01-08T16:34:06.485Z,5.20
2019-01-08T16:36:39.206Z,4.90
2019-01-08T16:39:11.719Z,4.70
2019-01-08T16:41:45.524Z,5.20
2019-01-08T16:44:16.897Z,6.23
2019-01-08T16:46:48.055Z,5.97
2019-01-08T16:49:22.416Z,7.07
2019-01-08T16:51:53.898Z,6.50
2019-01-08T16:54:25.552Z,6.07
2019-01-08T16:56:56.949Z,7.03
2019-01-08T16:59:27.976Z,5.80
2019-01-08T17:01:59.835Z,4.33
2019-01-08T17:04:32.950Z,3.00
2019-01-08T17:07:05.082Z,2.60
2019-01-08T17:09:38.573Z,2.57
2019-01-08T17:12:18.161Z,3.47
2019-01-08T17:14:57.589Z,3.47
2019-01-08T17:17:29.932Z,3.87
2019-01-08T17:20:01.323Z,3.57
2019-01-08T17:22:31.180Z,4.63
2019-01-08T17:25:03.188Z,3.97
2019-01-08T17:27:37.762Z,4.23
2019-01-08T17:30:10.428Z,3.90
2019-01-08T17:32:40.967Z,3.53
2019-01-08T17:35:16.140Z,3.77
2019-01-08T17:37:46.893Z,3.13
2019-01-08T17:40:18.197Z,3.33
2019-01-08T17:42:50.477Z,3.33
2019-01-08T17:45:21.993Z,2.77
2019-01-08T17:47:53.725Z,2.87
2019-01-08T17:50:26.599Z,2.50
2019-01-08T17:52:58.024Z,2.87
2019-01-08T17:55:29.295Z,3.33
2019-01-08T17:58:35.670Z,3.03
2019-01-08T18:01:12.898Z,3.70
2019-01-08T18:03:45.517Z,4.00
2019-01-08T18:06:16.432Z,4.50
2019-01-08T18:08:46.446Z,4.30
2019-01-08T18:11:18.364Z,4.73
2019-01-08T18:13:49.713Z,3.70
2019-01-08T18:16:20.996Z,4.70
2019-01-08T18:18:53.806Z,4.57
2019-01-08T18:21:24.887Z,5.03
2019-01-08T18:23:58.776Z,5.47
2019-01-08T18:26:30.401Z,5.00
2019-01-08T18:29:01.706Z,5.27
2019-01-08T18:31:34.453Z,4.80
2019-01-08T18:34:07.854Z,5.40
2019-01-08T18:36:40.398Z,4.07
2019-01-08T18:39:11.847Z,4.77
2019-01-08T18:41:43.935Z,4.53
2019-01-08T18:44:16.268Z,4.10
2019-01-08T18:46:48.847Z,4.87
2019-01-08T18:49:20.463Z,6.33
2019-01-08T18:51:51.745Z,4.60
2019-01-08T18:54:23.058Z,4.63
2019-01-08T18:56:56.780Z,4.80
2019-01-08T18:59:29.463Z,5.00
2019-01-08T19:02:01.325Z,5.07
2019-01-08T19:04:42.873Z,6.30
2019-01-08T19:07:13.577Z,7.43
2019-01-08T19:12:27.352Z,6.73
2019-01-08T19:15:07.906Z,6.80
2019-01-08T19:17:43.611Z,6.40
2019-01-08T19:20:13.324Z,5.93
2019-01-08T19:22:45.827Z,6.70
2019-01-08T19:25:17.668Z,6.07
2019-01-08T19:27:49.893Z,6.27
2019-01-08T19:30:23.472Z,4.70
2019-01-08T19:32:58.613Z,6.23
2019-01-08T19:35:31.727Z,5.13
2019-01-08T19:38:08.945Z,5.53
2019-01-08T19:40:56.670Z,5.30
2019-01-08T19:43:32.909Z,5.40
2019-01-08T19:46:19.923Z,5.67
2019-01-08T19:48:52.041Z,5.67
2019-01-08T19:51:25.068Z,5.23
2019-01-08T19:53:57.022Z,5.30
2019-01-08T19:56:27.014Z,6.07
2019-01-08T19:58:58.514Z,5.30
2019-01-08T20:01:28.279Z,5.00
2019-01-08T20:04:17.810Z,6.07
2019-01-08T20:06:40.883Z,4.83
2019-01-08T20:09:11.256Z,4.40
2019-01-08T20:11:41.045Z,5.07
2019-01-08T20:14:11.404Z,4.47
2019-01-08T20:16:49.653Z,4.60
2019-01-08T20:19:39.320Z,4.37
2019-01-08T20:22:07.398Z,3.70
2019-01-08T20:24:39.063Z,3.47
2019-01-08T20:27:34.039Z,2.37
2019-01-08T20:29:56.034Z,2.77
2019-01-08T20:32:26.242Z,2.60
2019-01-08T20:35:24.074Z,2.33
2019-01-08T20:37:55.740Z,2.50
2019-01-08T20:40:25.682Z,2.97
2019-01-08T20:43:36.393Z,1.93
2019-01-08T20:52:18.452Z,2.60
2019-01-08T20:55:01.358Z,2.73
2019-01-08T20:57:31.323Z,3.20
2019-01-08T21:00:01.095Z,2.77
2019-01-08T21:02:36.341Z,2.73
2019-01-08T21:05:27.328Z,2.77
2019-01-08T21:08:18.132Z,2.53
2019-01-08T21:11:09.305Z,2.97
2019-01-08T21:13:39.259Z,2.97
2019-01-08T21:16:09.247Z,2.83
2019-01-08T21:21:21.775Z,2.43
2019-01-08T21:23:51.900Z,2.93
2019-01-08T21:26:21.804Z,2.47
2019-01-08T21:28:51.947Z,2.20
2019-01-08T21:34:44.352Z,2.47
2019-01-08T21:37:23.886Z,2.50
2019-01-08T21:40:20.009Z,2.30
2019-01-08T21:55:10.699Z,2.17
2019-01-08T22:09:59.213Z,2.67
2019-01-08T22:12:46.043Z,2.20
2019-01-08T22:15:24.009Z,2.30
2019-01-08T22:28:26.400Z,2.00
2019-01-08T22:31:01.811Z,1.90
2019-01-08T22:33:31.564Z,2.90
2019-01-08T22:36:03.205Z,1.90
2019-01-08T22:51:13.930Z,1.80
2019-01-08T22:53:55.359Z,2.47
2019-01-08T22:56:33.976Z,2.67
2019-01-08T22:59:07.582Z,2.20
2019-01-08T23:04:23.007Z,2.50
2019-01-08T23:07:00.303Z,3.30
2019-01-08T23:09:35.288Z,2.70
2019-01-08T23:12:12.015Z,2.37
2019-01-08T23:15:06.785Z,3.53
2019-01-08T23:17:45.632Z,2.27
2019-01-08T23:20:24.959Z,2.60
2019-01-08T23:22:54.063Z,2.37
2019-01-08T23:25:37.559Z,2.13
2019-01-08T23:28:14.688Z,2.47
2019-01-08T23:30:50.171Z,2.50
2019-01-08T23:33:33.520Z,2.40
2019-01-08T23:36:09.743Z,2.90
2019-01-08T23:38:50.100Z,2.40
2019-01-08T23:41:21.526Z,2.20
2019-01-08T23:44:09.467Z,2.23
2019-01-08T23:46:38.043Z,2.30
2019-01-08T23:49:23.753Z,2.83
2019-01-08T23:52:00.903Z,2.70
2019-01-08T23:54:34.551Z,2.73
2019-01-08T23:57:16.763Z,2.87
